createdAt,value
2018-05-11T00:01:18.106Z,49.20
2018-05-11T00:03:47.684Z,48.90
2018-05-11T00:06:17.167Z,49.40
2018-05-11T00:08:47.438Z,47.70
2018-05-11T00:11:18.606Z,49.80
2018-05-11T00:13:48.088Z,49.70
2018-05-11T00:16:17.468Z,49.20
2018-05-11T00:18:47.542Z,49.60
2018-05-11T00:21:17.708Z,47.70
2018-05-11T00:23:48.265Z,47.30
2018-05-11T00:26:17.720Z,47.20
2018-05-11T00:28:47.076Z,47.70
2018-05-11T00:31:17.629Z,47.80
2018-05-11T00:33:47.117Z,48.30
2018-05-11T00:36:16.779Z,47.80
2018-05-11T00:38:46.191Z,47.70
2018-05-11T00:41:15.551Z,48.90
2018-05-11T00:43:44.788Z,49.10
2018-05-11T00:46:14.391Z,48.50
2018-05-11T00:48:44.051Z,49.90
2018-05-11T00:51:14.429Z,51.70
2018-05-11T00:53:44.299Z,51.60
2018-05-11T00:56:13.856Z,51.90
2018-05-11T00:58:43.400Z,53.00
2018-05-11T01:01:13.570Z,52.00
2018-05-11T01:03:43.031Z,51.90
2018-05-11T01:06:12.808Z,52.30
2018-05-11T01:08:42.580Z,52.90
2018-05-11T01:11:12.179Z,52.40
2018-05-11T01:13:41.744Z,52.70
2018-05-11T01:16:11.276Z,52.90
2018-05-11T01:18:40.727Z,53.30
2018-05-11T01:21:10.213Z,52.90
2018-05-11T01:23:40.635Z,53.40
2018-05-11T01:26:11.092Z,52.60
2018-05-11T01:28:45.043Z,52.20
2018-05-11T01:31:14.631Z,52.20
2018-05-11T01:33:44.180Z,52.40
2018-05-11T01:36:13.769Z,53.10
2018-05-11T01:38:43.299Z,54.50
2018-05-11T01:41:12.687Z,53.60
2018-05-11T01:43:43.678Z,54.40
2018-05-11T01:46:13.040Z,55.60
2018-05-11T01:48:42.904Z,56.10
2018-05-11T01:51:12.330Z,56.90
2018-05-11T01:53:41.988Z,57.30
2018-05-11T01:56:11.602Z,57.10
2018-05-11T01:58:41.238Z,57.70
2018-05-11T02:01:11.702Z,58.20
2018-05-11T02:03:41.111Z,57.20
2018-05-11T02:06:10.621Z,57.40
2018-05-11T02:08:40.347Z,56.60
2018-05-11T02:11:09.599Z,56.80
2018-05-11T02:13:40.540Z,57.50
2018-05-11T02:16:10.672Z,57.50
2018-05-11T02:18:41.629Z,57.50
2018-05-11T02:21:11.064Z,58.90
2018-05-11T02:23:40.647Z,59.70
2018-05-11T02:26:10.428Z,59.10
2018-05-11T02:28:40.529Z,58.10
2018-05-11T02:31:10.193Z,58.30
2018-05-11T02:33:40.016Z,57.60
2018-05-11T02:36:09.297Z,57.60
2018-05-11T02:38:39.146Z,59.60
2018-05-11T02:41:08.592Z,58.70
2018-05-11T02:43:38.151Z,59.00
2018-05-11T02:46:07.919Z,59.50
2018-05-11T02:48:37.145Z,59.00
2018-05-11T02:51:07.648Z,59.40
2018-05-11T02:53:37.333Z,59.50
2018-05-11T02:56:06.694Z,60.30
2018-05-11T02:58:36.590Z,60.20
2018-05-11T03:01:06.109Z,60.90
2018-05-11T03:03:35.662Z,60.60
2018-05-11T03:06:05.126Z,61.50
2018-05-11T03:08:34.918Z,62.10
2018-05-11T03:11:04.422Z,62.70
2018-05-11T03:13:34.464Z,62.90
2018-05-11T03:16:03.889Z,63.10
2018-05-11T03:18:34.319Z,64.40
2018-05-11T03:21:03.832Z,64.50
2018-05-11T03:23:33.839Z,65.10
2018-05-11T03:26:04.198Z,66.60
2018-05-11T03:28:33.568Z,66.10
2018-05-11T03:31:04.207Z,66.20
2018-05-11T03:33:34.971Z,65.80
2018-05-11T03:36:04.861Z,66.20
2018-05-11T03:38:35.516Z,66.70
2018-05-11T03:41:06.013Z,67.20
2018-05-11T03:43:36.549Z,67.20
2018-05-11T03:46:09.157Z,67.40
2018-05-11T03:48:39.332Z,67.40
2018-05-11T03:51:10.022Z,66.90
2018-05-11T03:53:39.433Z,67.00
2018-05-11T03:56:09.227Z,67.20
2018-05-11T03:58:38.423Z,67.60
2018-05-11T04:01:19.054Z,67.70
2018-05-11T04:04:00.010Z,68.10
2018-05-11T04:06:41.601Z,69.00
2018-05-11T04:09:11.203Z,68.90
2018-05-11T04:11:40.965Z,68.60
2018-05-11T04:14:10.348Z,69.10
2018-05-11T04:16:40.104Z,69.30
2018-05-11T04:19:08.985Z,69.80
2018-05-11T04:21:38.459Z,70.00
2018-05-11T04:24:08.250Z,70.00
2018-05-11T04:26:38.096Z,70.60
2018-05-11T04:29:07.806Z,70.80
2018-05-11T04:31:38.008Z,71.60
2018-05-11T04:34:07.623Z,72.30
2018-05-11T04:36:37.897Z,72.30
2018-05-11T04:39:07.435Z,72.70
2018-05-11T04:41:37.162Z,73.00
2018-05-11T04:44:07.542Z,73.40
2018-05-11T04:46:38.503Z,74.00
2018-05-11T04:49:08.777Z,74.60
2018-05-11T04:51:38.285Z,74.50
2018-05-11T04:54:07.684Z,75.10
2018-05-11T04:56:38.548Z,75.30
2018-05-11T04:59:08.264Z,75.40
2018-05-11T05:01:45.571Z,75.70
2018-05-11T05:04:15.909Z,75.90
2018-05-11T05:06:45.457Z,75.80
2018-05-11T05:09:14.984Z,76.00
2018-05-11T05:11:46.225Z,76.80
2018-05-11T05:14:15.730Z,77.00
2018-05-11T05:16:45.443Z,77.50
2018-05-11T05:19:14.964Z,77.50
2018-05-11T05:21:45.090Z,77.90
2018-05-11T05:24:14.845Z,78.30
2018-05-11T05:26:44.918Z,78.20
2018-05-11T05:29:14.571Z,78.20
2018-05-11T05:31:45.154Z,77.90
2018-05-11T05:34:15.211Z,78.40
2018-05-11T05:36:45.135Z,78.90
2018-05-11T05:39:14.652Z,79.00
2018-05-11T05:41:44.426Z,79.50
2018-05-11T05:44:14.397Z,79.60
2018-05-11T05:46:43.638Z,79.30
2018-05-11T05:49:13.517Z,79.30
2018-05-11T05:51:43.911Z,79.20
2018-05-11T05:54:13.384Z,79.70
2018-05-11T05:56:42.862Z,79.80
2018-05-11T05:59:13.675Z,80.10
2018-05-11T06:01:43.107Z,80.90
2018-05-11T06:04:12.886Z,80.10
2018-05-11T06:06:42.468Z,80.20
2018-05-11T06:09:13.148Z,80.40
2018-05-11T06:11:44.155Z,80.50
2018-05-11T06:14:14.297Z,81.30
2018-05-11T06:16:44.349Z,80.10
2018-05-11T06:19:14.714Z,81.00
2018-05-11T06:21:44.305Z,81.00
2018-05-11T06:24:15.184Z,81.10
2018-05-11T06:26:44.672Z,81.20
2018-05-11T06:29:15.868Z,81.40
2018-05-11T06:31:45.629Z,81.20
2018-05-11T06:34:15.210Z,81.70
2018-05-11T06:36:44.450Z,82.30
2018-05-11T06:39:14.050Z,82.10
2018-05-11T06:41:43.940Z,82.00
2018-05-11T06:44:14.474Z,82.10
2018-05-11T06:46:44.399Z,82.20
2018-05-11T06:49:15.243Z,81.70
2018-05-11T06:51:45.563Z,81.70
2018-05-11T06:54:15.680Z,82.10
2018-05-11T06:56:45.156Z,82.40
2018-05-11T06:59:14.625Z,82.50
2018-05-11T07:01:45.454Z,82.40
2018-05-11T07:04:15.274Z,82.70
2018-05-11T07:06:45.051Z,82.60
2018-05-11T07:09:14.431Z,82.70
2018-05-11T07:11:44.280Z,82.60
2018-05-11T07:14:13.486Z,82.90
2018-05-11T07:16:42.956Z,82.60
2018-05-11T07:19:12.640Z,82.60
2018-05-11T07:21:42.425Z,82.20
2018-05-11T07:24:12.304Z,82.10
2018-05-11T07:26:41.953Z,82.60
2018-05-11T07:29:11.677Z,82.40
2018-05-11T07:31:41.280Z,81.90
2018-05-11T07:34:10.369Z,82.00
2018-05-11T07:36:40.048Z,82.10
2018-05-11T07:39:09.397Z,81.80
2018-05-11T07:41:39.908Z,82.10
2018-05-11T07:44:12.038Z,81.70
2018-05-11T07:46:41.245Z,81.70
2018-05-11T07:49:10.601Z,81.80
2018-05-11T07:51:40.056Z,81.60
2018-05-11T07:54:10.416Z,82.10
2018-05-11T07:56:39.978Z,82.00
2018-05-11T07:59:09.404Z,81.60
2018-05-11T08:01:39.917Z,81.50
2018-05-11T08:04:09.764Z,81.40
2018-05-11T08:06:39.120Z,81.20
2018-05-11T08:09:08.597Z,81.40
2018-05-11T08:11:38.128Z,81.20
2018-05-11T08:14:07.551Z,81.40
2018-05-11T08:16:37.760Z,81.50
2018-05-11T08:19:08.291Z,81.40
2018-05-11T08:21:38.285Z,81.40
2018-05-11T08:24:07.448Z,81.20
2018-05-11T08:26:38.129Z,81.40
2018-05-11T08:29:07.622Z,81.40
2018-05-11T08:31:37.107Z,81.70
2018-05-11T08:34:06.711Z,81.50
2018-05-11T08:36:36.135Z,81.90
2018-05-11T08:39:06.612Z,81.80
2018-05-11T08:41:36.839Z,81.50
2018-05-11T08:44:06.404Z,81.80
2018-05-11T08:46:36.357Z,81.50
2018-05-11T08:49:05.867Z,81.70
2018-05-11T08:51:35.198Z,82.50
2018-05-11T08:54:04.866Z,81.60
2018-05-11T08:56:34.209Z,81.80
2018-05-11T08:59:03.668Z,81.80
2018-05-11T09:01:33.820Z,82.00
2018-05-11T09:04:03.547Z,81.90
2018-05-11T09:06:33.031Z,82.20
2018-05-11T09:09:02.585Z,82.30
2018-05-11T09:11:33.261Z,82.20
2018-05-11T09:14:03.352Z,82.00
2018-05-11T09:16:33.802Z,82.50
2018-05-11T09:19:04.557Z,82.50
2018-05-11T09:21:34.487Z,82.50
2018-05-11T09:24:03.732Z,82.30
2018-05-11T09:26:33.205Z,82.70
2018-05-11T09:29:02.591Z,82.60
2018-05-11T09:31:31.916Z,82.90
2018-05-11T09:34:01.248Z,83.00
2018-05-11T09:36:31.676Z,82.70
2018-05-11T09:39:01.941Z,82.70
2018-05-11T09:41:31.353Z,82.70
2018-05-11T09:44:00.944Z,82.80
2018-05-11T09:46:30.883Z,82.80
2018-05-11T09:49:00.261Z,82.70
2018-05-11T09:51:29.581Z,82.80
2018-05-11T09:53:59.038Z,83.00
2018-05-11T09:56:28.616Z,82.90
2018-05-11T09:58:58.376Z,83.10
2018-05-11T10:01:29.037Z,83.00
2018-05-11T10:03:58.389Z,83.10
2018-05-11T10:06:27.979Z,82.90
2018-05-11T10:08:57.445Z,82.60
2018-05-11T10:11:27.209Z,82.80
2018-05-11T10:13:56.929Z,83.00
2018-05-11T10:16:28.719Z,83.00
2018-05-11T10:18:58.258Z,83.20
2018-05-11T10:21:27.684Z,83.20
2018-05-11T10:23:57.134Z,82.80
2018-05-11T10:26:26.615Z,83.10
2018-05-11T10:28:55.950Z,83.50
2018-05-11T10:31:25.513Z,84.10
2018-05-11T10:33:55.109Z,83.40
2018-05-11T10:36:25.472Z,83.30
2018-05-11T10:38:56.474Z,83.30
2018-05-11T10:41:26.824Z,83.10
2018-05-11T10:43:56.035Z,83.00
2018-05-11T10:46:25.556Z,83.30
2018-05-11T10:48:55.100Z,83.00
2018-05-11T10:51:26.123Z,83.30
2018-05-11T10:53:55.538Z,83.20
2018-05-11T10:56:28.211Z,83.10
2018-05-11T10:58:57.721Z,82.90
2018-05-11T11:01:27.875Z,82.60
2018-05-11T11:03:57.724Z,82.60
2018-05-11T11:06:27.444Z,82.20
2018-05-11T11:08:56.888Z,82.70
2018-05-11T11:11:27.040Z,82.90
2018-05-11T11:13:56.754Z,83.00
2018-05-11T11:16:27.140Z,82.80
2018-05-11T11:18:57.081Z,83.00
2018-05-11T11:21:27.652Z,83.30
2018-05-11T11:23:57.249Z,83.40
2018-05-11T11:26:26.857Z,83.00
2018-05-11T11:28:56.233Z,83.10
2018-05-11T11:31:25.751Z,83.10
2018-05-11T11:33:55.029Z,83.00
2018-05-11T11:36:24.656Z,83.10
2018-05-11T11:38:54.263Z,83.20
2018-05-11T11:41:25.038Z,83.40
2018-05-11T11:43:55.295Z,83.50
2018-05-11T11:46:25.846Z,83.50
2018-05-11T11:48:55.989Z,83.60
2018-05-11T11:51:27.011Z,83.60
2018-05-11T11:53:56.640Z,83.80
2018-05-11T11:56:26.306Z,83.90
2018-05-11T11:58:55.910Z,84.00
2018-05-11T12:01:25.245Z,84.20
2018-05-11T12:03:54.603Z,84.00
2018-05-11T12:06:24.282Z,84.10
2018-05-11T12:08:53.657Z,84.30
2018-05-11T12:11:23.257Z,84.50
2018-05-11T12:13:52.753Z,84.60
2018-05-11T12:16:22.107Z,84.50
2018-05-11T12:18:51.035Z,84.30
2018-05-11T12:21:20.669Z,84.50
2018-05-11T12:23:50.272Z,84.30
2018-05-11T12:26:20.815Z,84.30
2018-05-11T12:28:50.396Z,84.50
2018-05-11T12:31:20.563Z,84.50
2018-05-11T12:33:49.962Z,84.50
2018-05-11T12:36:19.568Z,84.90
2018-05-11T12:38:48.945Z,85.00
2018-05-11T12:41:18.404Z,85.20
2018-05-11T12:43:48.979Z,85.40
2018-05-11T12:46:18.160Z,85.30
2018-05-11T12:48:47.551Z,85.30
2018-05-11T12:51:16.831Z,85.40
2018-05-11T12:53:46.896Z,85.30
2018-05-11T12:56:16.353Z,85.00
2018-05-11T12:58:45.925Z,85.10
2018-05-11T13:01:15.180Z,84.90
2018-05-11T13:03:45.406Z,85.10
2018-05-11T13:06:14.945Z,85.20
2018-05-11T13:08:44.754Z,85.40
2018-05-11T13:11:14.702Z,85.30
2018-05-11T13:13:45.505Z,85.20
2018-05-11T13:16:15.044Z,85.40
2018-05-11T13:18:44.548Z,85.00
2018-05-11T13:21:13.914Z,85.30
2018-05-11T13:23:44.138Z,86.40
2018-05-11T13:26:13.342Z,85.60
2018-05-11T13:28:43.799Z,86.10
2018-05-11T13:31:13.322Z,86.40
2018-05-11T13:33:42.769Z,86.70
2018-05-11T13:36:13.091Z,86.80
2018-05-11T13:38:42.470Z,86.80
2018-05-11T13:41:12.460Z,86.50
2018-05-11T13:43:42.010Z,86.20
2018-05-11T13:46:11.667Z,85.70
2018-05-11T13:48:41.510Z,85.40
2018-05-11T13:51:10.801Z,85.30
2018-05-11T13:53:40.306Z,84.70
2018-05-11T13:56:09.769Z,84.20
2018-05-11T13:58:39.161Z,84.10
2018-05-11T14:01:08.636Z,84.50
2018-05-11T14:03:38.714Z,84.40
2018-05-11T14:06:08.513Z,84.20
2018-05-11T14:08:37.917Z,84.40
2018-05-11T14:11:07.586Z,84.90
2018-05-11T14:13:38.405Z,84.40
2018-05-11T14:16:07.960Z,83.90
2018-05-11T14:18:37.589Z,84.00
2018-05-11T14:21:09.335Z,83.00
2018-05-11T14:23:38.735Z,82.70
2018-05-11T14:26:08.451Z,81.50
2018-05-11T14:28:38.641Z,81.60
2018-05-11T14:31:08.102Z,81.70
2018-05-11T14:33:37.414Z,81.60
2018-05-11T14:36:08.007Z,80.70
2018-05-11T14:38:37.470Z,80.00
2018-05-11T14:41:07.881Z,79.60
2018-05-11T14:43:37.434Z,78.70
2018-05-11T14:46:07.763Z,78.30
2018-05-11T14:48:37.348Z,78.40
2018-05-11T14:51:07.999Z,77.60
2018-05-11T14:53:37.883Z,76.90
2018-05-11T14:56:07.468Z,76.50
2018-05-11T14:58:37.088Z,75.80
2018-05-11T15:01:06.158Z,75.30
2018-05-11T15:03:35.591Z,74.60
2018-05-11T15:06:04.345Z,74.00
2018-05-11T15:08:34.566Z,73.00
2018-05-11T15:11:05.089Z,69.90
2018-05-11T15:13:35.079Z,69.70
2018-05-11T15:16:04.472Z,68.50
2018-05-11T15:18:35.945Z,67.10
2018-05-11T15:21:05.811Z,67.00
2018-05-11T15:23:35.456Z,68.00
2018-05-11T15:26:05.101Z,65.60
2018-05-11T15:28:34.549Z,65.60
2018-05-11T15:31:04.996Z,67.50
2018-05-11T15:33:34.323Z,65.60
2018-05-11T15:36:03.805Z,65.80
2018-05-11T15:38:34.840Z,64.60
2018-05-11T15:41:04.385Z,64.70
2018-05-11T15:43:34.029Z,65.20
2018-05-11T15:46:03.569Z,65.40
2018-05-11T15:48:33.969Z,65.70
2018-05-11T15:51:03.542Z,66.40
2018-05-11T15:53:32.782Z,64.70
2018-05-11T15:56:02.356Z,64.00
2018-05-11T15:58:31.983Z,65.00
2018-05-11T16:01:01.490Z,61.80
2018-05-11T16:03:31.069Z,61.70
2018-05-11T16:06:00.709Z,64.00
2018-05-11T16:08:30.283Z,62.50
2018-05-11T16:10:59.609Z,61.30
2018-05-11T16:13:29.232Z,62.00
2018-05-11T16:15:58.910Z,60.00
2018-05-11T16:18:28.410Z,59.60
2018-05-11T16:20:58.042Z,60.00
2018-05-11T16:23:27.636Z,59.90
2018-05-11T16:25:57.362Z,58.90
2018-05-11T16:28:26.891Z,58.60
2018-05-11T16:30:56.578Z,58.80
2018-05-11T16:33:27.403Z,59.00
2018-05-11T16:35:57.706Z,59.50
2018-05-11T16:38:27.172Z,58.80
2018-05-11T16:41:28.832Z,57.40
2018-05-11T16:43:58.659Z,57.50
2018-05-11T16:46:45.352Z,56.50
2018-05-11T16:49:14.645Z,54.00
2018-05-11T16:51:43.979Z,53.80
2018-05-11T16:54:13.641Z,52.40
2018-05-11T16:56:43.497Z,52.40
2018-05-11T16:59:12.961Z,50.90
2018-05-11T17:01:42.851Z,51.50
2018-05-11T17:04:12.213Z,50.60
2018-05-11T17:06:41.798Z,49.20
2018-05-11T17:09:11.204Z,48.50
2018-05-11T17:11:40.729Z,46.80
2018-05-11T17:14:10.233Z,43.40
2018-05-11T17:16:40.542Z,45.80
2018-05-11T17:19:11.808Z,45.80
2018-05-11T17:21:41.301Z,48.60
2018-05-11T17:24:10.939Z,50.80
2018-05-11T17:26:40.421Z,50.60
2018-05-11T17:29:09.814Z,51.60
2018-05-11T17:31:39.168Z,51.70
2018-05-11T17:34:09.261Z,47.20
2018-05-11T17:36:38.777Z,40.50
2018-05-11T17:39:09.271Z,28.40
2018-05-11T17:41:39.286Z,28.20
2018-05-11T17:44:08.927Z,25.30
2018-05-11T17:46:38.282Z,21.50
2018-05-11T17:49:07.351Z,19.60
2018-05-11T17:51:37.186Z,19.10
2018-05-11T17:54:06.799Z,19.30
2018-05-11T17:56:36.388Z,18.50
2018-05-11T17:59:05.956Z,20.40
2018-05-11T18:01:35.350Z,21.90
2018-05-11T18:04:04.936Z,22.70
2018-05-11T18:06:34.928Z,19.20
2018-05-11T18:09:04.584Z,19.60
2018-05-11T18:11:34.066Z,22.20
2018-05-11T18:14:04.577Z,27.00
2018-05-11T18:16:34.042Z,26.90
2018-05-11T18:19:04.485Z,26.90
2018-05-11T18:21:33.967Z,26.90
2018-05-11T18:24:03.232Z,29.90
2018-05-11T18:26:32.439Z,33.80
2018-05-11T18:29:02.082Z,38.20
2018-05-11T18:31:32.580Z,41.70
2018-05-11T18:34:02.113Z,41.60
2018-05-11T18:36:32.123Z,41.50
2018-05-11T18:39:02.554Z,40.90
2018-05-11T18:41:32.585Z,40.20
2018-05-11T18:44:04.326Z,33.20
2018-05-11T18:46:34.205Z,27.40
2018-05-11T18:49:05.339Z,25.00
2018-05-11T18:51:34.771Z,23.90
2018-05-11T18:54:05.958Z,24.90
2018-05-11T18:56:35.136Z,29.50
2018-05-11T18:59:04.883Z,34.00
2018-05-11T19:01:34.121Z,37.10
2018-05-11T19:04:03.803Z,37.90
2018-05-11T19:06:41.139Z,39.00
2018-05-11T19:09:10.645Z,39.40
2018-05-11T19:11:40.050Z,38.50
2018-05-11T19:14:09.506Z,39.20
2018-05-11T19:16:39.935Z,40.80
2018-05-11T19:19:09.418Z,39.40
2018-05-11T19:21:39.058Z,40.70
2018-05-11T19:24:08.777Z,40.90
2018-05-11T19:26:38.257Z,41.60
2018-05-11T19:29:07.286Z,41.10
2018-05-11T19:31:37.082Z,42.50
2018-05-11T19:34:06.579Z,43.10
2018-05-11T19:36:35.956Z,40.30
2018-05-11T19:39:06.291Z,40.70
2018-05-11T19:41:35.924Z,42.50
2018-05-11T19:44:05.496Z,43.40
2018-05-11T19:46:34.787Z,44.90
2018-05-11T19:49:04.128Z,44.10
2018-05-11T19:51:35.587Z,45.00
2018-05-11T19:54:05.336Z,46.30
2018-05-11T19:56:34.997Z,47.80
2018-05-11T19:59:04.605Z,48.60
2018-05-11T20:01:34.090Z,48.80
2018-05-11T20:04:03.526Z,47.20
2018-05-11T20:06:32.890Z,46.70
2018-05-11T20:09:03.032Z,47.40
2018-05-11T20:11:32.441Z,48.90
2018-05-11T20:14:01.951Z,47.70
2018-05-11T20:16:33.610Z,47.90
2018-05-11T20:19:04.057Z,47.90
2018-05-11T20:21:33.549Z,47.90
2018-05-11T20:24:03.564Z,46.90
2018-05-11T20:26:33.313Z,49.00
2018-05-11T20:29:02.965Z,49.00
2018-05-11T20:31:32.359Z,50.60
2018-05-11T20:34:01.983Z,49.60
2018-05-11T20:36:31.437Z,48.70
2018-05-11T20:39:00.591Z,49.20
2018-05-11T20:41:30.847Z,48.40
2018-05-11T20:44:00.379Z,48.30
2018-05-11T20:46:30.710Z,50.90
2018-05-11T20:49:00.920Z,49.30
2018-05-11T20:51:30.426Z,48.90
2018-05-11T20:53:59.969Z,48.70
2018-05-11T20:56:30.533Z,49.50
2018-05-11T20:59:00.826Z,49.50
2018-05-11T21:01:30.140Z,49.20
2018-05-11T21:03:59.858Z,47.60
2018-05-11T21:06:31.025Z,49.80
2018-05-11T21:09:00.400Z,49.70
2018-05-11T21:11:31.433Z,51.30
2018-05-11T21:14:03.063Z,50.80
2018-05-11T21:16:32.697Z,50.80
2018-05-11T21:19:02.729Z,50.20
2018-05-11T21:21:33.060Z,51.70
2018-05-11T21:24:02.661Z,51.50
2018-05-11T21:26:32.998Z,51.10
2018-05-11T21:29:02.592Z,52.60
2018-05-11T21:31:31.960Z,50.40
2018-05-11T21:34:01.476Z,51.10
2018-05-11T21:36:31.301Z,50.50
2018-05-11T21:39:00.706Z,50.40
2018-05-11T21:41:30.158Z,51.60
2018-05-11T21:43:59.720Z,50.10
2018-05-11T21:46:30.002Z,50.90
2018-05-11T21:48:59.352Z,50.80
2018-05-11T21:51:30.172Z,50.30
2018-05-11T21:54:00.084Z,52.80
2018-05-11T21:56:29.802Z,51.40
2018-05-11T21:58:59.801Z,50.30
2018-05-11T22:01:30.553Z,49.80
2018-05-11T22:04:02.382Z,50.20
2018-05-11T22:06:32.667Z,50.30
2018-05-11T22:09:02.149Z,48.50
2018-05-11T22:11:31.737Z,49.40
2018-05-11T22:14:01.139Z,50.00
2018-05-11T22:16:30.713Z,47.80
2018-05-11T22:19:00.180Z,47.00
2018-05-11T22:21:29.869Z,48.80
2018-05-11T22:23:59.411Z,47.60
2018-05-11T22:26:30.040Z,49.00
2018-05-11T22:29:02.003Z,48.60
2018-05-11T22:31:31.559Z,47.50
2018-05-11T22:34:01.537Z,47.80
2018-05-11T22:36:30.880Z,48.90
2018-05-11T22:39:01.849Z,49.10
2018-05-11T22:41:32.031Z,49.00
2018-05-11T22:44:01.618Z,48.90
2018-05-11T22:46:33.511Z,49.40
2018-05-11T22:49:02.824Z,50.20
2018-05-11T22:51:32.762Z,48.90
2018-05-11T22:54:04.759Z,50.40
2018-05-11T22:56:34.975Z,48.60
2018-05-11T22:59:04.234Z,48.10
2018-05-11T23:01:34.617Z,49.60
2018-05-11T23:04:04.324Z,50.20
2018-05-11T23:06:33.857Z,49.30
2018-05-11T23:09:03.357Z,50.40
2018-05-11T23:11:32.788Z,51.20
2018-05-11T23:14:02.499Z,51.20
2018-05-11T23:16:32.879Z,49.80
2018-05-11T23:19:02.587Z,49.70
2018-05-11T23:21:32.654Z,49.90
2018-05-11T23:24:02.238Z,49.40
2018-05-11T23:26:33.475Z,50.90
2018-05-11T23:29:03.505Z,50.70
2018-05-11T23:31:34.709Z,50.10
2018-05-11T23:34:03.934Z,50.00
2018-05-11T23:36:33.701Z,48.90
2018-05-11T23:39:02.829Z,49.80
2018-05-11T23:41:32.740Z,49.80
2018-05-11T23:44:02.217Z,50.30
2018-05-11T23:46:31.986Z,51.20
2018-05-11T23:49:02.240Z,50.70
2018-05-11T23:51:31.811Z,50.60
2018-05-11T23:54:03.124Z,51.40
2018-05-11T23:56:32.697Z,51.50
2018-05-11T23:59:02.483Z,50.90
